Disclaimer

Please do not use the information listed here in-flight or in-navigation, as they are not provided to us by the airports but are provided by volunteers, so they might be outdated.

Search


Regions


Airport information page

Radio informations:
CONCEPCION TWR - 118.1 MHz
Ground (GND) - 121.9 MHz
CONCEPCION APP - 120.5 MHz

Airport informations:
Latitude: 36° 46' 21.54" S
Longitude: 073° 03' 47.18" W
Elevation: 26 feet - 8 meters
Operating hours: 24 hour operations
Operating agency: Civil government, landing fees and diplomatic clearance may be required
Timezone: UTC-4(-3DT)
Fuel: Jet A1, without icing nhibitor.

100/130 MIL Spec, low lead, aviation gasoline (BLUE)

Runway information:
02/20 - 7540 x 148 feet< - >2298 x 45 meters

Recent METARs:
SCIE 211700Z 02011KT 9999 SCT010 BKN020 17/15 Q1017
SCIE 211700Z 02011KT 9999 SCT010 BKN020 17/15 Q1017
SCIE 211800Z 02009KT 9999 SCT007 OVC018 17/15 Q1017

Airport on the map: